createdAt,value
2019-02-10T00:01:49.480Z,100234.55
2019-02-10T00:06:54.942Z,100232.36
2019-02-10T00:12:00.313Z,100244.48
2019-02-10T00:17:05.853Z,100258.59
2019-02-10T00:22:11.227Z,100256.78
2019-02-10T00:27:16.942Z,100267.05
2019-02-10T00:32:22.269Z,100275.08
2019-02-10T00:37:27.610Z,100272.65
2019-02-10T00:42:32.956Z,100284.09
2019-02-10T00:47:38.437Z,100292.58
2019-02-10T00:52:43.631Z,100293.80
2019-02-10T00:57:48.803Z,100291.63
2019-02-10T01:02:55.080Z,100292.02
2019-02-10T01:08:01.067Z,100296.30
2019-02-10T01:13:06.859Z,100262.99
2019-02-10T01:18:13.255Z,100275.52
2019-02-10T01:23:18.803Z,100279.89
2019-02-10T01:28:24.575Z,100263.84
2019-02-10T01:33:29.827Z,100267.19
2019-02-10T01:38:35.179Z,100274.53
2019-02-10T01:43:40.753Z,100272.52
2019-02-10T01:48:46.207Z,100268.56
2019-02-10T01:53:51.878Z,100274.30
2019-02-10T01:58:57.544Z,100269.50
2019-02-10T02:04:02.899Z,100268.48
2019-02-10T02:09:10.421Z,100266.07
2019-02-10T02:14:15.864Z,100262.23
2019-02-10T02:19:21.745Z,100262.19
2019-02-10T02:24:27.404Z,100254.78
2019-02-10T02:29:32.871Z,100247.20
2019-02-10T02:34:38.541Z,100242.94
2019-02-10T02:39:43.792Z,100240.21
2019-02-10T02:44:49.259Z,100239.05
2019-02-10T02:49:55.248Z,100245.07
2019-02-10T02:55:00.670Z,100251.58
2019-02-10T03:00:08.485Z,100237.19
2019-02-10T03:05:13.673Z,100233.66
2019-02-10T03:10:19.021Z,100246.58
2019-02-10T03:15:24.377Z,100237.58
2019-02-10T03:20:29.932Z,100246.67
2019-02-10T03:25:35.199Z,100242.30
2019-02-10T03:30:40.805Z,100248.80
2019-02-10T03:35:46.107Z,100251.27
2019-02-10T03:40:51.482Z,100252.20
2019-02-10T03:45:57.136Z,100243.32
2019-02-10T03:51:02.497Z,100251.80
2019-02-10T03:56:08.066Z,100251.70
2019-02-10T04:01:13.402Z,100262.64
2019-02-10T04:06:19.088Z,100257.52
2019-02-10T04:11:24.453Z,100255.77
2019-02-10T04:16:30.023Z,100254.92
2019-02-10T04:21:35.728Z,100249.39
2019-02-10T04:26:40.926Z,100241.91
2019-02-10T04:31:46.154Z,100249.66
2019-02-10T04:36:51.519Z,100253.54
2019-02-10T04:41:56.828Z,100244.80
2019-02-10T04:47:02.057Z,100255.28
2019-02-10T04:52:07.460Z,100256.97
2019-02-10T04:57:13.186Z,100257.25
2019-02-10T05:02:20.427Z,100261.70
2019-02-10T05:07:25.761Z,100269.19
2019-02-10T05:12:30.999Z,100273.24
2019-02-10T05:17:36.793Z,100279.66
2019-02-10T05:22:42.124Z,100278.19
2019-02-10T05:27:47.270Z,100282.41
2019-02-10T05:32:52.458Z,100284.95
2019-02-10T05:38:03.822Z,100289.58
2019-02-10T05:43:05.482Z,100284.67
2019-02-10T05:48:10.886Z,100298.17
2019-02-10T05:53:16.426Z,100293.17
2019-02-10T05:58:22.001Z,100285.89
2019-02-10T06:03:27.482Z,100294.04
2019-02-10T06:08:33.115Z,100287.42
2019-02-10T06:13:38.487Z,100294.87
2019-02-10T06:18:43.835Z,100294.53
2019-02-10T06:23:49.511Z,100309.00
2019-02-10T06:28:55.064Z,100310.14
2019-02-10T06:34:00.231Z,100310.05
2019-02-10T06:39:06.748Z,100309.14
2019-02-10T06:44:12.219Z,100308.20
2019-02-10T06:49:17.809Z,100317.53
2019-02-10T06:54:23.114Z,100309.65
2019-02-10T06:59:48.828Z,100319.93
2019-02-10T07:04:54.190Z,100311.70
2019-02-10T07:09:59.754Z,100319.80
2019-02-10T07:15:05.998Z,100309.57
2019-02-10T07:20:36.815Z,100310.00
2019-02-10T07:25:44.688Z,100305.09
2019-02-10T07:30:58.838Z,100315.23
2019-02-10T07:36:19.105Z,100310.41
2019-02-10T07:41:45.745Z,100308.31
2019-02-10T07:47:00.025Z,100307.02
2019-02-10T07:52:29.579Z,100303.31
2019-02-10T07:58:09.411Z,100303.91
2019-02-10T08:03:23.682Z,100305.41
2019-02-10T08:08:46.612Z,100310.80
2019-02-10T08:14:22.613Z,100303.56
2019-02-10T08:19:36.880Z,100290.80
2019-02-10T08:24:57.132Z,100290.12
2019-02-10T08:30:28.035Z,100285.72
2019-02-10T08:35:43.269Z,100274.71
2019-02-10T08:41:04.217Z,100273.28
2019-02-10T08:46:12.503Z,100274.77
2019-02-10T08:51:40.168Z,100260.17
2019-02-10T08:56:45.455Z,100264.10
2019-02-10T09:01:50.661Z,100257.03
2019-02-10T09:06:55.930Z,100251.25
2019-02-10T09:12:01.400Z,100252.73
2019-02-10T09:17:06.884Z,100242.84
2019-02-10T09:22:12.181Z,100235.84
2019-02-10T09:27:18.424Z,100225.58
2019-02-10T09:32:24.678Z,100223.22
2019-02-10T09:37:30.246Z,100217.39
2019-02-10T09:42:37.545Z,100203.88
2019-02-10T09:47:43.301Z,100206.14
2019-02-10T09:52:48.563Z,100213.02
2019-02-10T09:57:54.143Z,100214.88
2019-02-10T10:02:59.294Z,100198.69
2019-02-10T10:08:04.984Z,100197.45
2019-02-10T10:13:10.887Z,100184.39
2019-02-10T10:18:16.573Z,100176.66
2019-02-10T10:23:22.570Z,100175.06
2019-02-10T10:28:27.930Z,100155.55
2019-02-10T10:33:33.497Z,100142.81
2019-02-10T10:38:38.957Z,100123.36
2019-02-10T10:43:44.322Z,100110.55
2019-02-10T10:48:49.987Z,100105.11
2019-02-10T10:53:55.353Z,100097.52
2019-02-10T10:59:02.004Z,100081.31
2019-02-10T11:04:07.287Z,100066.56
2019-02-10T11:09:12.688Z,100066.89
2019-02-10T11:14:19.897Z,100048.56
2019-02-10T11:19:25.154Z,100038.36
2019-02-10T11:24:30.673Z,100041.17
2019-02-10T11:29:36.009Z,100036.74
2019-02-10T11:34:46.103Z,100020.64
2019-02-10T11:39:48.175Z,100006.66
2019-02-10T11:44:53.449Z,100005.68
2019-02-10T11:49:58.719Z,99995.27
2019-02-10T11:55:06.349Z,99980.28
2019-02-10T12:00:17.197Z,99978.14
2019-02-10T12:05:22.539Z,99961.59
2019-02-10T12:10:28.634Z,99944.98
2019-02-10T12:15:33.978Z,99935.95
2019-02-10T12:20:39.344Z,99924.96
2019-02-10T12:25:44.878Z,99900.53
2019-02-10T12:30:50.686Z,99886.84
2019-02-10T12:35:58.328Z,99873.83
2019-02-10T12:41:03.207Z,99864.86
2019-02-10T12:46:08.585Z,99855.65
2019-02-10T12:51:14.110Z,99841.41
2019-02-10T12:56:19.315Z,99830.56
2019-02-10T13:01:24.877Z,99816.17
2019-02-10T13:06:30.336Z,99799.11
2019-02-10T13:11:35.811Z,99777.61
2019-02-10T13:16:41.087Z,99773.09
2019-02-10T13:21:46.488Z,99755.34
2019-02-10T13:26:51.814Z,99743.66
2019-02-10T13:31:57.088Z,99735.23
2019-02-10T13:37:02.700Z,99725.16
2019-02-10T13:42:08.038Z,99708.31
2019-02-10T13:47:13.605Z,99692.94
2019-02-10T13:52:19.263Z,99692.45
2019-02-10T13:57:24.624Z,99692.12
2019-02-10T14:02:30.089Z,99684.72
2019-02-10T14:07:35.646Z,99683.41
2019-02-10T14:12:40.988Z,99668.44
2019-02-10T14:17:46.588Z,99655.36
2019-02-10T14:22:51.855Z,99648.37
2019-02-10T14:27:57.394Z,99629.94
2019-02-10T14:33:02.961Z,99627.57
2019-02-10T14:38:08.721Z,99612.83
2019-02-10T14:43:13.987Z,99586.08
2019-02-10T14:48:19.089Z,99580.28
2019-02-10T14:53:24.454Z,99563.54
2019-02-10T14:58:29.853Z,99564.77
2019-02-10T15:03:35.004Z,99565.05
2019-02-10T15:08:40.495Z,99542.95
2019-02-10T15:13:46.068Z,99540.52
2019-02-10T15:18:51.804Z,99536.47
2019-02-10T15:23:57.051Z,99522.05
2019-02-10T15:29:02.605Z,99514.63
2019-02-10T15:34:08.180Z,99516.83
2019-02-10T15:39:16.130Z,99498.92
2019-02-10T15:44:21.396Z,99492.66
2019-02-10T15:49:26.790Z,99470.11
2019-02-10T15:54:32.276Z,99456.35
2019-02-10T15:59:37.451Z,99453.14
2019-02-10T16:04:42.796Z,99434.92
2019-02-10T16:09:48.173Z,99421.31
2019-02-10T16:14:53.521Z,99407.00
2019-02-10T16:19:58.909Z,99389.06
2019-02-10T16:25:06.698Z,99375.55
2019-02-10T16:30:17.678Z,99369.86
2019-02-10T16:35:22.937Z,99365.59
2019-02-10T16:40:27.982Z,99353.63
2019-02-10T16:45:33.385Z,99341.70
2019-02-10T16:50:38.594Z,99327.05
2019-02-10T16:55:43.902Z,99307.09
2019-02-10T17:00:49.307Z,99301.98
2019-02-10T17:05:54.777Z,99296.59
2019-02-10T17:11:00.253Z,99280.95
2019-02-10T17:16:05.593Z,99261.59
2019-02-10T17:21:10.753Z,99241.60
2019-02-10T17:26:15.936Z,99234.44
2019-02-10T17:31:21.886Z,99226.39
2019-02-10T17:36:27.544Z,99201.19
2019-02-10T17:41:33.009Z,99196.81
2019-02-10T17:46:38.116Z,99188.35
2019-02-10T17:51:43.346Z,99175.23
2019-02-10T17:56:48.745Z,99169.68
2019-02-10T18:01:54.363Z,99166.28
2019-02-10T18:07:00.013Z,99155.92
2019-02-10T18:12:05.387Z,99146.89
2019-02-10T18:17:17.630Z,99126.18
2019-02-10T18:22:34.836Z,99120.03
2019-02-10T18:27:41.664Z,99115.06
2019-02-10T18:32:48.941Z,99111.95
2019-02-10T18:37:55.986Z,99099.72
2019-02-10T18:43:08.852Z,99099.72
2019-02-10T18:48:15.755Z,99084.05
2019-02-10T18:53:38.936Z,99072.86
2019-02-10T18:58:59.213Z,99074.30
2019-02-10T19:04:07.045Z,99066.83
2019-02-10T19:09:14.246Z,99054.54
2019-02-10T19:14:27.376Z,99042.57
2019-02-10T19:19:34.280Z,99024.79
2019-02-10T19:24:46.756Z,99025.70
2019-02-10T19:29:59.751Z,99020.98
2019-02-10T19:35:23.443Z,98999.08
2019-02-10T19:40:35.965Z,98998.75
2019-02-10T19:45:45.796Z,98987.52
2019-02-10T19:51:09.105Z,98984.06
2019-02-10T19:56:32.166Z,98985.03
2019-02-10T20:01:54.212Z,98984.11
2019-02-10T20:07:01.223Z,98985.49
2019-02-10T20:12:09.251Z,98971.31
2019-02-10T20:17:31.317Z,98975.97
2019-02-10T20:22:47.506Z,98954.09
2019-02-10T20:27:57.467Z,98964.84
2019-02-10T20:33:21.169Z,98962.20
2019-02-10T20:38:39.243Z,98955.33
2019-02-10T20:43:46.300Z,98959.14
2019-02-10T20:48:56.486Z,98957.97
2019-02-10T20:54:20.310Z,98940.61
2019-02-10T20:59:33.514Z,98940.80
2019-02-10T21:04:52.197Z,98942.37
2019-02-10T21:10:16.336Z,98938.16
2019-02-10T21:15:35.511Z,98931.70
2019-02-10T21:20:45.420Z,98924.40
2019-02-10T21:25:59.062Z,98917.46
2019-02-10T21:31:12.376Z,98913.20
2019-02-10T21:36:28.038Z,98911.52
2019-02-10T21:41:35.132Z,98920.09
2019-02-10T21:46:42.049Z,98912.69
2019-02-10T21:51:47.497Z,98919.22
2019-02-10T21:56:52.869Z,98910.64
2019-02-10T22:01:58.610Z,98917.11
2019-02-10T22:07:04.895Z,98903.22
2019-02-10T22:12:10.266Z,98900.75
2019-02-10T22:17:15.830Z,98897.69
2019-02-10T22:22:21.166Z,98888.56
2019-02-10T22:27:27.038Z,98886.38
2019-02-10T22:32:32.408Z,98884.34
2019-02-10T22:37:37.876Z,98869.69
2019-02-10T22:42:45.747Z,98877.03
2019-02-10T22:47:50.815Z,98871.03
2019-02-10T22:52:56.015Z,98880.92
2019-02-10T22:58:01.249Z,98879.69
2019-02-10T23:03:07.220Z,98901.16
2019-02-10T23:08:12.575Z,98899.98
2019-02-10T23:13:18.250Z,98888.28
2019-02-10T23:18:23.716Z,98899.11
2019-02-10T23:23:29.071Z,98904.64
2019-02-10T23:28:34.636Z,98903.83
2019-02-10T23:33:39.845Z,98891.80
2019-02-10T23:38:45.367Z,98894.81
2019-02-10T23:43:50.786Z,98887.80
2019-02-10T23:48:56.165Z,98885.38
2019-02-10T23:54:01.429Z,98888.70
2019-02-10T23:59:06.789Z,98886.16
